Time;durP1;ratioP1;P1;durP2;ratioP2;P2;SDS_P1;SDS_P2;PMS_P1;PMS_P2;Temp;Humidity;BMP_temperature;BMP_pressure;BME280_temperature;BME280_humidity;BME280_pressure;Samples;Min_cycle;Max_cycle;Signal;HPM_P1;HPM_P2
2023/07/18 00:03:59;;;;;;;6.65;3.72;;;;;;;20.81;71.83;100825.88;5031402;57;1138463;-71
2023/07/18 00:09:06;;;;;;;7.00;4.34;;;;;;;20.85;72.92;100836.61;5024566;57;1138865;-70
2023/07/18 00:14:11;;;;;;;5.37;3.80;;;;;;;21.08;73.71;100825.88;4991372;57;1138703;-72
2023/07/18 00:19:17;;;;;;;3.95;3.17;;;;;;;20.98;73.10;100836.86;5042490;57;1138863;-70
2023/07/18 00:24:23;;;;;;;9.78;4.33;;;;;;;20.84;73.63;100849.72;4994036;57;1138906;-68
2023/07/18 00:29:29;;;;;;;8.23;4.10;;;;;;;20.47;73.24;100843.70;4960857;58;1138524;-73
2023/07/18 00:34:34;;;;;;;6.28;4.40;;;;;;;20.34;73.37;100855.48;5012808;57;1138563;-73
2023/07/18 00:39:41;;;;;;;4.17;3.65;;;;;;;20.21;74.25;100861.91;5041018;57;1138603;-69
2023/07/18 00:44:50;;;;;;;4.15;3.40;;;;;;;19.96;74.54;100866.53;5042321;57;1138795;-70
2023/07/18 00:49:56;;;;;;;9.93;3.62;;;;;;;19.81;75.34;100870.41;5041957;57;1138657;-70
2023/07/18 00:55:03;;;;;;;5.80;3.75;;;;;;;19.73;75.81;100865.04;5062359;57;1138831;-68
2023/07/18 01:00:11;;;;;;;6.03;3.17;;;;;;;19.92;76.01;100857.97;5042484;57;1138712;-70
2023/07/18 01:05:20;;;;;;;7.25;3.37;;;;;;;19.99;75.56;100863.00;5042617;57;1138704;-68
2023/07/18 01:10:27;;;;;;;5.77;3.57;;;;;;;20.05;75.56;100857.93;5042061;57;1138843;-69
2023/07/18 01:15:35;;;;;;;9.45;3.50;;;;;;;19.95;74.65;100865.69;5061713;57;1138998;-67
2023/07/18 01:20:44;;;;;;;5.25;3.37;;;;;;;19.87;74.89;100866.19;5034143;57;1138822;-70
2023/07/18 01:25:48;;;;;;;3.27;3.02;;;;;;;19.72;75.00;100872.75;4960357;58;1138830;-69
2023/07/18 01:30:54;;;;;;;5.80;3.50;;;;;;;19.45;75.70;100876.61;5040264;57;1138723;-74
2023/07/18 01:36:00;;;;;;;6.78;3.33;;;;;;;19.20;76.64;100882.47;5041649;57;1138860;-72
2023/07/18 01:41:07;;;;;;;7.05;3.45;;;;;;;18.92;77.44;100890.47;5022929;57;1138678;-68
2023/07/18 01:46:12;;;;;;;3.70;2.90;;;;;;;18.74;78.35;100899.12;4982997;58;1138725;-70
2023/07/18 01:51:18;;;;;;;6.60;3.50;;;;;;;18.58;79.60;100912.80;5057246;57;1138890;-70
2023/07/18 01:56:24;;;;;;;7.57;3.53;;;;;;;18.54;79.73;100916.75;5057439;57;1138806;-72
2023/07/18 02:01:29;;;;;;;6.83;3.55;;;;;;;18.43;80.92;100920.22;4994569;58;1138901;-70
2023/07/18 02:06:35;;;;;;;4.55;3.00;;;;;;;18.29;81.01;100918.98;5051640;57;1138830;-72
2023/07/18 02:11:40;;;;;;;4.70;3.22;;;;;;;18.30;81.32;100919.33;5054468;57;1138670;-73
2023/07/18 02:16:47;;;;;;;3.77;2.62;;;;;;;18.19;82.02;100925.77;5074464;56;1139073;-67
2023/07/18 02:21:52;;;;;;;6.35;2.72;;;;;;;18.14;81.99;100923.24;5027283;57;1138652;-70
2023/07/18 02:26:59;;;;;;;7.10;3.27;;;;;;;18.05;83.07;100928.19;4987599;57;1138845;-71
2023/07/18 02:32:05;;;;;;;7.03;2.55;;;;;;;17.98;83.54;100939.20;5073028;57;1138583;-68
2023/07/18 02:37:11;;;;;;;3.50;2.40;;;;;;;17.93;83.74;100945.00;5054961;57;1138823;-70
2023/07/18 02:42:17;;;;;;;3.30;2.30;;;;;;;17.83;83.65;100946.45;5056463;57;1138556;-73
2023/07/18 02:47:23;;;;;;;5.10;2.40;;;;;;;17.71;83.36;100957.55;4907776;58;1138658;-67
2023/07/18 02:52:29;;;;;;;4.75;2.20;;;;;;;17.61;83.20;100964.27;5030512;57;1138923;-72
2023/07/18 02:57:35;;;;;;;3.72;2.10;;;;;;;17.54;82.22;100969.91;5011043;57;1138990;-71
2023/07/18 03:02:41;;;;;;;3.83;1.90;;;;;;;17.51;81.86;100967.03;5018626;57;1138885;-72
2023/07/18 03:07:48;;;;;;;2.05;1.80;;;;;;;17.40;81.18;100973.95;5060967;57;1138624;-67
2023/07/18 03:12:53;;;;;;;1.75;1.65;;;;;;;17.27;80.91;100981.48;5030491;57;1138619;-71
2023/07/18 03:17:59;;;;;;;3.08;2.20;;;;;;;17.25;80.42;100981.31;5023739;57;1138920;-71
2023/07/18 03:23:04;;;;;;;4.65;1.90;;;;;;;17.19;80.23;100987.59;4991684;57;1138727;-70
2023/07/18 03:28:11;;;;;;;3.45;1.77;;;;;;;17.14;79.80;100996.55;4985180;57;1140587;-70
2023/07/18 03:33:16;;;;;;;3.17;1.90;;;;;;;17.07;79.32;100998.65;4990777;57;1138753;-70
2023/07/18 03:38:22;;;;;;;3.30;1.70;;;;;;;17.03;79.54;101003.44;4972563;57;1139161;-73
2023/07/18 03:43:28;;;;;;;4.78;1.70;;;;;;;17.00;79.15;101009.58;5029682;57;1139334;-71
2023/07/18 03:48:34;;;;;;;2.27;1.60;;;;;;;16.91;78.66;101014.48;5010120;57;1138624;-72
2023/07/18 03:53:39;;;;;;;1.72;1.52;;;;;;;16.81;78.39;101018.02;4898570;57;1139167;-69
2023/07/18 03:58:45;;;;;;;3.93;1.90;;;;;;;16.75;78.19;101020.45;4971014;57;1138891;-72
2023/07/18 04:03:52;;;;;;;5.20;1.53;;;;;;;16.76;78.33;101023.47;5041390;57;1138795;-69
2023/07/18 04:08:58;;;;;;;1.77;1.67;;;;;;;16.76;77.86;101026.98;5061289;57;1139005;-71
2023/07/18 04:14:03;;;;;;;5.27;1.40;;;;;;;16.79;78.07;101024.03;5041105;57;1138591;-67
2023/07/18 04:19:10;;;;;;;8.28;1.50;;;;;;;16.82;78.06;101027.72;5059061;57;1138570;-70
2023/07/18 04:24:16;;;;;;;3.22;1.65;;;;;;;16.84;78.23;101034.25;4961016;57;1138801;-71
2023/07/18 04:29:21;;;;;;;5.25;1.67;;;;;;;16.79;78.41;101033.87;5034167;57;1138951;-69
2023/07/18 04:34:27;;;;;;;1.73;1.40;;;;;;;16.82;78.45;101042.41;5041939;57;1139047;-67
2023/07/18 04:39:32;;;;;;;4.00;1.62;;;;;;;16.85;78.39;101042.12;5032186;57;1138869;-70
2023/07/18 04:44:38;;;;;;;1.97;1.33;;;;;;;16.81;78.73;101052.75;4899201;58;1138672;-70
2023/07/18 04:49:43;;;;;;;2.47;1.60;;;;;;;16.78;78.76;101055.73;5011205;57;1138814;-71
2023/07/18 04:54:49;;;;;;;1.70;1.13;;;;;;;16.81;79.25;101056.75;5038720;57;1138542;-70
2023/07/18 04:59:55;;;;;;;3.20;1.70;;;;;;;16.84;78.89;101059.14;5061592;57;1138610;-67
2023/07/18 05:05:00;;;;;;;3.16;1.36;;;;;;;16.86;79.38;101067.02;5042183;57;1138635;-69
2023/07/18 05:10:07;;;;;;;2.63;1.60;;;;;;;16.99;79.47;101064.84;5041915;57;1138627;-68
2023/07/18 05:15:13;;;;;;;4.40;1.60;;;;;;;17.16;79.65;101073.42;5061952;57;1138490;-70
2023/07/18 05:20:20;;;;;;;3.83;1.13;;;;;;;17.19;78.51;101074.47;5040634;57;1140145;-72
2023/07/18 05:25:25;;;;;;;3.33;1.20;;;;;;;17.20;78.94;101084.17;4960561;58;1138669;-68
2023/07/18 05:30:31;;;;;;;2.43;1.40;;;;;;;17.23;78.09;101072.35;5053803;57;1138674;-71
2023/07/18 05:35:36;;;;;;;4.43;1.73;;;;;;;17.28;78.47;101081.24;5042001;57;1138981;-70
2023/07/18 05:40:43;;;;;;;2.70;2.00;;;;;;;17.40;78.59;101085.42;5042208;57;1138918;-70
2023/07/18 05:45:49;;;;;;;2.55;1.60;;;;;;;17.58;78.00;101092.96;5061723;57;1138634;-70
2023/07/18 05:50:55;;;;;;;4.30;1.82;;;;;;;17.66;77.23;101092.26;5036958;57;1138804;-68
2023/07/18 05:56:01;;;;;;;6.87;1.73;;;;;;;17.67;76.98;101098.80;5041603;57;1138835;-71
2023/07/18 06:01:12;;;;;;;6.33;2.20;;;;;;;17.69;76.47;101098.16;5061573;57;1138847;-68
2023/07/18 06:06:19;;;;;;;3.03;1.70;;;;;;;17.73;76.52;101093.32;5041917;57;1139100;-69
2023/07/18 06:11:24;;;;;;;4.63;1.80;;;;;;;17.77;77.14;101093.38;5042219;57;1138886;-69
2023/07/18 06:16:30;;;;;;;5.78;2.00;;;;;;;17.87;76.17;101096.31;5061916;57;1138686;-70
2023/07/18 06:21:36;;;;;;;1.45;1.35;;;;;;;18.04;76.86;101094.64;5019480;57;1138703;-71
2023/07/18 06:26:48;;;;;;;3.90;1.40;;;;;;;18.20;75.93;101093.95;4967920;57;1138908;-70
2023/07/18 06:31:49;;;;;;;4.65;1.92;;;;;;;18.32;74.24;101099.92;5044651;57;1138961;-67
2023/07/18 06:36:59;;;;;;;5.20;1.85;;;;;;;18.44;74.38;101100.86;5041868;57;1138886;-67
2023/07/18 06:42:05;;;;;;;2.40;1.65;;;;;;;18.50;72.08;101097.53;5016434;57;1139016;-69
2023/07/18 06:47:09;;;;;;;3.65;1.55;;;;;;;18.52;71.84;101094.20;4900196;58;1138567;-70
2023/07/18 06:52:15;;;;;;;5.20;1.52;;;;;;;18.60;71.76;101104.19;4881387;58;1138738;-72
2023/07/18 06:57:21;;;;;;;4.80;1.47;;;;;;;18.80;72.62;101104.80;4890868;59;1138887;-71
2023/07/18 07:02:26;;;;;;;4.78;1.40;;;;;;;19.01;71.07;101102.59;4891192;59;1139208;-72
2023/07/18 07:07:32;;;;;;;3.45;1.87;;;;;;;19.05;70.25;101099.94;4990195;58;1138757;-70
2023/07/18 07:12:38;;;;;;;6.03;1.92;;;;;;;19.15;69.10;101101.16;4970738;58;1138773;-71
2023/07/18 07:17:44;;;;;;;5.72;2.12;;;;;;;19.24;67.92;101098.37;4970192;58;1139063;-70
2023/07/18 07:22:51;;;;;;;1.55;1.00;;;;;;;19.44;67.63;101095.41;4989461;58;1138911;-72
2023/07/18 07:27:57;;;;;;;3.60;1.62;;;;;;;19.64;64.79;101095.01;4970754;57;1138698;-69
2023/07/18 07:33:06;;;;;;;3.24;1.54;;;;;;;19.81;66.74;101093.70;4963533;58;1138727;-72
2023/07/18 07:38:11;;;;;;;2.52;1.52;;;;;;;20.13;66.48;101091.06;4978694;58;1138755;-71
2023/07/18 07:43:17;;;;;;;2.72;1.72;;;;;;;20.31;63.21;101094.94;4970742;58;1138972;-69
2023/07/18 07:48:24;;;;;;;4.97;1.60;;;;;;;20.38;63.27;101090.59;4891336;59;1139741;-70
2023/07/18 07:53:29;;;;;;;5.42;1.45;;;;;;;20.44;60.60;101094.45;4891062;59;1138960;-69
2023/07/18 07:58:36;;;;;;;3.98;1.35;;;;;;;20.40;60.55;101091.77;4915215;58;1138860;-71
2023/07/18 08:03:42;;;;;;;2.55;1.30;;;;;;;20.42;61.21;101090.59;4965359;58;1138801;-70
2023/07/18 08:08:48;;;;;;;7.10;1.60;;;;;;;20.43;62.42;101092.77;4965809;58;1138912;-68
2023/07/18 08:13:53;;;;;;;4.08;1.32;;;;;;;20.61;62.60;101088.06;4985071;58;1139118;-70
2023/07/18 08:18:59;;;;;;;5.50;1.60;;;;;;;20.83;59.86;101086.48;4966253;58;1138943;-74
2023/07/18 08:24:05;;;;;;;4.92;1.80;;;;;;;21.02;60.36;101077.53;4966512;58;1138970;-70
2023/07/18 08:29:10;;;;;;;2.02;1.60;;;;;;;21.12;57.91;101075.13;4990613;58;1138689;-69
2023/07/18 08:34:17;;;;;;;3.58;1.67;;;;;;;21.12;58.86;101074.63;4942017;58;1138793;-73
2023/07/18 08:39:23;;;;;;;4.12;2.05;;;;;;;21.02;59.26;101065.43;4962869;58;1138679;-71
2023/07/18 08:44:28;;;;;;;4.00;2.58;;;;;;;21.25;59.66;101061.48;5007571;57;1138829;-70
2023/07/18 08:49:36;;;;;;;4.42;1.10;;;;;;;21.57;56.78;101059.64;5045588;57;1138963;-73
2023/07/18 08:54:41;;;;;;;7.62;2.72;;;;;;;21.61;53.87;101059.12;5045077;57;1138905;-71
2023/07/18 08:59:49;;;;;;;1.67;0.85;;;;;;;21.75;53.50;101048.94;5072156;57;1138615;-72
2023/07/18 09:04:55;;;;;;;2.98;1.05;;;;;;;21.80;52.87;101047.06;5055375;57;1138714;-70
2023/07/18 09:10:01;;;;;;;1.52;1.40;;;;;;;21.90;50.85;101035.53;5053347;57;1233394;-70
2023/07/18 09:15:08;;;;;;;1.22;1.00;;;;;;;21.92;53.11;101040.23;5074914;57;1138674;-72
2023/07/18 09:20:17;;;;;;;2.42;1.20;;;;;;;22.12;50.77;101033.05;4994777;57;1138614;-71
2023/07/18 09:25:23;;;;;;;2.50;1.17;;;;;;;22.23;49.86;101037.48;4958992;58;1178371;-70
2023/07/18 09:30:35;;;;;;;3.00;1.40;;;;;;;22.35;49.32;101026.58;4958934;58;1237720;-69
2023/07/18 09:35:43;;;;;;;2.65;1.47;;;;;;;22.42;52.05;101030.23;4981814;57;1138891;-73
2023/07/18 09:40:50;;;;;;;2.35;1.45;;;;;;;22.77;50.65;101014.36;5024803;57;1138957;-71
2023/07/18 09:45:56;;;;;;;2.33;1.20;;;;;;;22.91;50.60;101017.59;4921434;58;1138639;-71
2023/07/18 09:51:03;;;;;;;3.00;1.15;;;;;;;23.05;50.67;101014.55;4900360;57;1138860;-71
2023/07/18 09:56:14;;;;;;;1.92;1.00;;;;;;;23.25;48.26;101013.42;5042125;57;1138624;-69
2023/07/18 10:01:20;;;;;;;2.37;1.15;;;;;;;23.37;47.85;101011.42;5049218;57;1139245;-71
2023/07/18 10:06:27;;;;;;;5.08;1.05;;;;;;;23.30;46.72;101005.09;5053508;57;1138884;-73
2023/07/18 10:11:33;;;;;;;2.67;1.10;;;;;;;23.17;45.69;101010.86;5072921;57;1138856;-70
2023/07/18 10:16:42;;;;;;;6.85;1.32;;;;;;;23.29;45.48;101006.63;5050925;57;1254495;-73
2023/07/18 10:21:49;;;;;;;5.03;1.52;;;;;;;23.49;43.06;101000.95;5025535;57;1255495;-69
2023/07/18 10:27:02;;;;;;;2.90;1.27;;;;;;;23.40;45.12;100998.87;4956680;58;1139141;-72
2023/07/18 10:32:13;;;;;;;2.22;1.47;;;;;;;23.46;45.02;100987.31;4994270;57;1254199;-69
2023/07/18 10:37:26;;;;;;;0.87;0.87;;;;;;;23.69;44.16;100990.36;4949792;57;1253445;-71
2023/07/18 10:42:32;;;;;;;2.67;1.27;;;;;;;23.45;43.98;100989.69;5034631;56;1256164;-69
2023/07/18 10:47:37;;;;;;;2.64;1.88;;;;;;;23.13;45.14;100980.70;5070133;57;1244554;-72
2023/07/18 10:52:43;;;;;;;1.75;0.80;;;;;;;23.36;43.80;100977.36;5048388;57;1244358;-72
2023/07/18 10:57:49;;;;;;;3.50;1.30;;;;;;;23.73;42.54;100970.89;5048934;57;1253610;-73
2023/07/18 11:02:54;;;;;;;0.75;0.75;;;;;;;24.02;43.02;100962.30;5070399;57;1245768;-73
2023/07/18 11:08:00;;;;;;;1.47;1.15;;;;;;;24.16;41.07;100962.20;5048865;56;1248541;-72
2023/07/18 11:13:06;;;;;;;0.95;0.85;;;;;;;24.02;40.95;100962.30;5050745;56;1233242;-70
2023/07/18 11:18:11;;;;;;;5.47;0.72;;;;;;;23.95;41.67;100954.67;5072034;57;1138894;-72
2023/07/18 11:23:18;;;;;;;2.64;1.78;;;;;;;24.16;39.68;100950.55;5015436;57;1139045;-70
2023/07/18 11:28:34;;;;;;;1.50;1.20;;;;;;;24.31;39.58;100942.36;4959925;57;1139218;-70
2023/07/18 11:33:39;;;;;;;2.90;1.12;;;;;;;24.37;39.96;100933.47;5016859;57;1138801;-71
2023/07/18 11:38:47;;;;;;;5.70;1.07;;;;;;;24.53;39.94;100943.45;4982934;57;1138695;-69
2023/07/18 11:43:54;;;;;;;1.45;0.90;;;;;;;24.67;40.93;100942.16;5052480;57;1138955;-71
2023/07/18 11:49:01;;;;;;;4.87;1.22;;;;;;;24.60;40.72;100940.77;5070620;56;1245697;-69
2023/07/18 11:54:07;;;;;;;0.70;0.70;;;;;;;24.58;39.95;100934.75;5052526;57;1138952;-72
2023/07/18 11:59:13;;;;;;;6.15;2.10;;;;;;;24.66;40.18;100933.73;5052475;56;1138821;-71
2023/07/18 12:04:18;;;;;;;1.55;1.02;;;;;;;24.76;40.47;100939.08;5056380;56;1138817;-71
2023/07/18 12:09:24;;;;;;;1.00;0.90;;;;;;;24.51;40.62;100925.23;5056853;57;1139427;-71
2023/07/18 12:14:31;;;;;;;2.30;1.10;;;;;;;24.46;41.82;100914.69;5052380;57;1139106;-72
2023/07/18 12:19:37;;;;;;;3.83;1.53;;;;;;;24.37;40.46;100913.20;4969270;58;1236839;-68
2023/07/18 12:24:43;;;;;;;3.02;1.30;;;;;;;24.40;41.77;100911.45;4910292;58;1138807;-70
2023/07/18 12:29:49;;;;;;;2.45;0.93;;;;;;;24.45;42.67;100901.69;4889096;58;1220043;-68
2023/07/18 12:34:55;;;;;;;3.67;1.22;;;;;;;24.80;39.11;100901.64;5043474;57;1191268;-70
2023/07/18 12:40:01;;;;;;;7.20;1.32;;;;;;;24.90;37.02;100893.99;4985451;58;1138844;-73
2023/07/18 12:45:07;;;;;;;1.57;1.00;;;;;;;24.90;38.01;100879.91;4864000;58;1138943;-74
2023/07/18 12:50:13;;;;;;;5.17;1.25;;;;;;;25.14;38.92;100881.78;4891134;58;1139058;-71
2023/07/18 12:55:20;;;;;;;1.22;1.12;;;;;;;25.02;38.42;100876.66;4903105;58;1138739;-71
2023/07/18 13:00:25;;;;;;;3.65;1.20;;;;;;;24.86;37.72;100861.61;4909148;58;1138699;-73
2023/07/18 13:05:31;;;;;;;1.30;0.75;;;;;;;25.09;38.41;100860.74;4891330;57;1138838;-68
2023/07/18 13:10:38;;;;;;;3.40;1.00;;;;;;;25.35;37.38;100866.73;4808247;60;1138885;-73
2023/07/18 13:15:49;;;;;;;1.20;1.10;;;;;;;25.31;37.24;100848.39;4910615;58;1138909;-69
2023/07/18 13:20:51;;;;;;;1.32;0.80;;;;;;;25.24;37.31;100846.50;4822900;59;1139031;-70
2023/07/18 13:25:57;;;;;;;6.25;0.98;;;;;;;25.55;37.54;100837.76;4827150;59;1138867;-71
2023/07/18 13:31:02;;;;;;;1.47;0.80;;;;;;;25.46;35.74;100836.83;4844910;59;1138643;-69
2023/07/18 13:36:08;;;;;;;2.42;1.15;;;;;;;25.17;37.15;100842.97;4891515;58;1138813;-70
2023/07/18 13:41:14;;;;;;;1.52;1.12;;;;;;;25.00;37.00;100830.86;4890438;59;1138610;-70
2023/07/18 13:46:20;;;;;;;1.88;1.08;;;;;;;25.29;37.88;100824.22;4862159;57;1138924;-70
2023/07/18 13:51:26;;;;;;;1.67;1.00;;;;;;;25.61;39.24;100820.36;4829406;59;1139202;-67
2023/07/18 13:56:32;;;;;;;1.72;1.00;;;;;;;25.57;37.43;100819.94;4814702;59;1138819;-68
2023/07/18 14:01:37;;;;;;;1.45;0.93;;;;;;;25.54;37.13;100820.36;4842423;59;1138716;-69
2023/07/18 14:06:43;;;;;;;1.40;0.98;;;;;;;25.37;37.06;100818.59;4910092;58;1138876;-72
2023/07/18 14:11:48;;;;;;;3.83;1.12;;;;;;;25.35;38.36;100819.34;4891075;59;1138427;-66
2023/07/18 14:16:54;;;;;;;3.27;1.00;;;;;;;25.27;36.70;100822.77;4891166;58;1138558;-67
2023/07/18 14:22:00;;;;;;;9.35;1.57;;;;;;;25.14;37.19;100821.72;4910421;59;1138626;-65
2023/07/18 14:27:06;;;;;;;1.95;1.05;;;;;;;25.07;37.42;100819.51;4970607;58;1138613;-68
2023/07/18 14:32:11;;;;;;;3.30;1.72;;;;;;;24.96;38.62;100825.54;4891270;58;1138729;-69
2023/07/18 14:37:17;;;;;;;4.08;1.52;;;;;;;24.95;37.90;100827.92;4910326;59;1138770;-68
2023/07/18 14:42:22;;;;;;;3.30;0.98;;;;;;;24.98;38.14;100832.10;4848807;59;1138654;-66
2023/07/18 14:47:29;;;;;;;3.15;1.00;;;;;;;24.85;37.61;100818.83;4891263;59;1139032;-67
2023/07/18 14:52:35;;;;;;;1.05;1.05;;;;;;;24.80;39.33;100818.60;4910622;59;1138776;-69
2023/07/18 14:57:40;;;;;;;1.85;1.10;;;;;;;24.84;38.73;100813.11;4891015;59;1138890;-69
2023/07/18 15:02:46;;;;;;;1.00;1.00;;;;;;;24.75;38.14;100802.69;4860041;59;1138766;-69
2023/07/18 15:07:52;;;;;;;1.30;1.10;;;;;;;24.72;37.74;100794.98;5064655;57;1138813;-67
2023/07/18 15:12:58;;;;;;;7.87;1.37;;;;;;;24.79;38.21;100782.28;5041864;57;1138856;-67
2023/07/18 15:18:04;;;;;;;4.83;1.45;;;;;;;24.77;38.33;100773.02;4960317;57;1138906;-68
2023/07/18 15:23:11;;;;;;;2.08;1.10;;;;;;;24.90;39.15;100758.70;4979637;57;1138924;-67
2023/07/18 15:28:17;;;;;;;2.80;1.42;;;;;;;25.08;38.00;100760.80;4959958;58;1139133;-70
2023/07/18 15:33:23;;;;;;;1.90;1.40;;;;;;;25.10;36.22;100758.72;4991239;57;1139038;-69
2023/07/18 15:38:28;;;;;;;4.27;1.30;;;;;;;25.15;37.36;100750.81;4992353;57;1138967;-66
2023/07/18 15:43:34;;;;;;;1.80;1.23;;;;;;;25.08;36.58;100756.22;5061586;57;1138710;-68
2023/07/18 15:48:43;;;;;;;1.98;1.20;;;;;;;25.06;36.79;100752.05;4959856;58;1138748;-66
2023/07/18 15:53:47;;;;;;;1.98;1.12;;;;;;;24.88;37.00;100754.84;4880875;57;1138691;-66
2023/07/18 15:58:53;;;;;;;1.25;1.07;;;;;;;24.97;38.32;100745.19;4979420;58;1138964;-66
2023/07/18 16:03:58;;;;;;;1.77;1.20;;;;;;;25.01;37.41;100737.81;5009542;57;1138674;-68
2023/07/18 16:09:05;;;;;;;3.95;1.57;;;;;;;25.06;37.89;100732.58;5018838;57;1138931;-68
2023/07/18 16:14:10;;;;;;;4.53;1.50;;;;;;;25.25;38.33;100722.80;4981012;57;1138790;-71
2023/07/18 16:19:17;;;;;;;2.60;1.90;;;;;;;25.43;38.81;100708.09;4959860;57;1139023;-67
2023/07/18 16:24:23;;;;;;;1.30;1.20;;;;;;;25.47;38.38;100707.98;4978669;58;1138607;-70
2023/07/18 16:29:29;;;;;;;2.73;1.33;;;;;;;25.37;37.70;100704.86;4959737;58;1138736;-71
2023/07/18 16:34:35;;;;;;;2.17;1.60;;;;;;;25.43;37.65;100693.20;5009954;57;1139070;-68
2023/07/18 16:39:41;;;;;;;1.57;1.47;;;;;;;25.21;36.36;100686.34;4987535;57;1138926;-70
2023/07/18 16:44:47;;;;;;;3.20;1.60;;;;;;;25.03;36.93;100679.42;4958594;58;1138840;-67
2023/07/18 16:49:53;;;;;;;4.78;1.60;;;;;;;25.04;38.01;100675.67;5048816;56;1138725;-66
2023/07/18 16:54:58;;;;;;;2.75;1.52;;;;;;;25.12;37.19;100671.37;4974963;57;1138870;-67
2023/07/18 17:00:05;;;;;;;3.35;1.70;;;;;;;25.15;37.90;100661.49;4962730;57;1138853;-70
2023/07/18 17:05:10;;;;;;;6.25;1.50;;;;;;;25.17;38.43;100656.70;5037513;57;1138904;-74
2023/07/18 17:10:16;;;;;;;2.58;1.17;;;;;;;25.19;37.63;100647.34;4962424;57;1138954;-71
2023/07/18 17:15:21;;;;;;;3.98;1.85;;;;;;;25.18;39.21;100642.96;5020775;56;1138904;-73
2023/07/18 17:20:27;;;;;;;3.17;1.50;;;;;;;25.21;38.45;100643.03;5125058;56;1138646;-72
2023/07/18 17:25:33;;;;;;;3.95;1.55;;;;;;;25.10;37.98;100645.05;5064369;57;1138925;-70
2023/07/18 17:30:39;;;;;;;2.50;2.02;;;;;;;25.06;38.31;100641.92;5036593;57;1138832;-69
2023/07/18 17:35:44;;;;;;;1.75;1.27;;;;;;;25.05;38.97;100636.22;5007641;57;1138655;-71
2023/07/18 17:40:51;;;;;;;2.77;1.70;;;;;;;24.97;38.67;100646.42;5043815;57;1138930;-72
2023/07/18 17:45:56;;;;;;;11.43;2.05;;;;;;;24.80;38.83;100641.40;5030087;57;1138762;-68
2023/07/18 17:51:03;;;;;;;2.25;1.40;;;;;;;24.63;39.41;100646.91;5026255;57;1140868;-72
2023/07/18 17:56:09;;;;;;;14.13;2.15;;;;;;;24.60;40.03;100639.72;4990395;57;1138690;-70
2023/07/18 18:01:15;;;;;;;5.50;1.72;;;;;;;24.53;39.90;100643.28;5015613;57;1140885;-71
2023/07/18 18:06:20;;;;;;;3.00;1.45;;;;;;;24.53;40.60;100634.33;5052263;57;1138503;-71
2023/07/18 18:11:26;;;;;;;3.10;1.63;;;;;;;24.50;40.42;100630.68;5052760;57;1138850;-73
2023/07/18 18:16:33;;;;;;;4.58;1.55;;;;;;;24.39;40.38;100628.08;5072503;56;1138655;-70
2023/07/18 18:21:39;;;;;;;4.22;2.22;;;;;;;24.33;41.43;100632.95;5020397;56;1138844;-72
2023/07/18 18:26:45;;;;;;;13.58;2.47;;;;;;;24.37;41.71;100630.16;5052328;56;1138710;-72
2023/07/18 18:31:50;;;;;;;3.83;1.70;;;;;;;24.41;42.31;100620.60;5059273;57;1141042;-71
2023/07/18 18:36:56;;;;;;;7.05;2.05;;;;;;;24.47;43.37;100608.11;4970369;57;1138617;-73
2023/07/18 18:42:02;;;;;;;6.72;2.00;;;;;;;24.48;43.75;100603.02;5036465;56;1138663;-70
2023/07/18 18:47:07;;;;;;;2.95;2.02;;;;;;;24.48;43.82;100607.90;5071883;56;1138737;-72
2023/07/18 18:52:13;;;;;;;3.85;2.62;;;;;;;24.42;43.11;100619.56;5052635;56;1138663;-69
2023/07/18 18:57:19;;;;;;;16.67;4.17;;;;;;;24.19;44.42;100609.61;5052559;56;1138530;-69
2023/07/18 19:02:24;;;;;;;13.90;3.87;;;;;;;24.06;45.99;100617.17;5007019;57;1141097;-70
2023/07/18 19:07:30;;;;;;;26.50;4.17;;;;;;;23.92;47.60;100596.57;4986322;57;1141187;-72
2023/07/18 19:12:36;;;;;;;38.85;13.08;;;;;;;23.80;48.28;100589.59;4966692;57;1140762;-71
2023/07/18 19:17:42;;;;;;;50.90;19.10;;;;;;;23.69;47.36;100594.20;4997528;57;1143301;-69
2023/07/18 19:22:47;;;;;;;57.50;18.73;;;;;;;23.57;47.32;100599.87;5016584;56;1142837;-70
2023/07/18 19:27:54;;;;;;;81.72;28.15;;;;;;;23.47;47.83;100604.28;4980739;57;1142843;-70
2023/07/18 19:32:59;;;;;;;47.53;16.50;;;;;;;23.34;48.49;100597.47;4972021;57;1142750;-69
2023/07/18 19:38:05;;;;;;;47.55;13.80;;;;;;;23.12;48.67;100598.58;4990734;57;1142880;-71
2023/07/18 19:43:12;;;;;;;61.08;16.60;;;;;;;23.00;49.58;100598.31;5015510;57;1142936;-70
2023/07/18 19:48:17;;;;;;;51.80;12.90;;;;;;;23.00;49.58;100598.31;4986005;56;1143082;-69
2023/07/18 19:53:24;;;;;;;44.10;15.45;;;;;;;22.95;49.88;100599.92;5043355;56;1143166;-71
2023/07/18 19:58:30;;;;;;;40.95;13.15;;;;;;;22.90;50.05;100598.35;5008446;57;1143223;-66
2023/07/18 20:03:36;;;;;;;38.17;14.53;;;;;;;22.84;50.14;100597.78;4991507;57;1143031;-69
2023/07/18 20:08:41;;;;;;;28.67;11.97;;;;;;;22.73;50.61;100609.41;5047513;56;1143153;-67
2023/07/18 20:13:47;;;;;;;27.98;12.40;;;;;;;22.56;50.71;100610.71;5003860;57;1143067;-69
2023/07/18 20:18:53;;;;;;;21.35;10.43;;;;;;;22.25;50.97;100616.95;5027141;57;1143272;-72
2023/07/18 20:23:59;;;;;;;20.62;9.03;;;;;;;22.07;52.52;100620.92;5026759;57;1142992;-71
2023/07/18 20:29:04;;;;;;;18.80;8.30;;;;;;;22.04;53.92;100617.25;5056607;56;1140869;-69
2023/07/18 20:34:10;;;;;;;17.75;9.08;;;;;;;22.03;54.05;100620.97;5012282;56;1141126;-68
2023/07/18 20:39:16;;;;;;;16.07;9.88;;;;;;;21.98;53.97;100621.20;5015836;56;1141174;-70
2023/07/18 20:44:22;;;;;;;17.42;9.95;;;;;;;21.79;54.48;100614.56;4955298;57;1141163;-71
2023/07/18 20:49:28;;;;;;;21.80;10.65;;;;;;;21.65;55.09;100618.12;5024490;57;1141020;-70
2023/07/18 20:54:40;;;;;;;24.43;12.63;;;;;;;21.56;55.73;100624.11;4988322;56;1142870;-71
2023/07/18 20:59:42;;;;;;;32.73;11.87;;;;;;;21.47;56.21;100617.69;4959280;57;1147289;-69
2023/07/18 21:04:47;;;;;;;14.75;7.85;;;;;;;21.41;56.71;100623.30;4997109;56;1142805;-69
2023/07/18 21:09:54;;;;;;;22.02;10.48;;;;;;;21.32;57.43;100624.42;4960079;58;1140890;-72
2023/07/18 21:14:59;;;;;;;37.35;17.67;;;;;;;21.23;57.96;100618.83;4959840;58;1143124;-70
2023/07/18 21:20:06;;;;;;;45.83;20.95;;;;;;;21.11;58.02;100618.39;4986422;57;1142965;-71
2023/07/18 21:25:12;;;;;;;102.00;44.50;;;;;;;20.95;58.33;100622.59;4972099;58;1142949;-69
2023/07/18 21:30:17;;;;;;;91.17;36.75;;;;;;;20.72;59.50;100618.64;5034182;57;1144736;-67
2023/07/18 21:35:23;;;;;;;55.08;26.10;;;;;;;20.43;59.95;100624.77;5054985;57;1143163;-73
2023/07/18 21:40:29;;;;;;;43.38;19.57;;;;;;;20.19;60.41;100622.22;5079527;57;1143320;-70
2023/07/18 21:45:35;;;;;;;34.50;16.20;;;;;;;20.10;61.30;100617.42;5042313;57;1143197;-72
2023/07/18 21:50:41;;;;;;;26.07;11.97;;;;;;;20.08;61.86;100617.27;4991855;57;1143090;-70
2023/07/18 21:55:47;;;;;;;37.97;15.07;;;;;;;20.05;62.41;100615.77;5049441;56;1142749;-67
2023/07/18 22:00:52;;;;;;;34.05;13.08;;;;;;;20.04;62.63;100611.41;5054209;57;1142807;-67
2023/07/18 22:05:58;;;;;;;32.30;12.80;;;;;;;19.93;62.46;100608.64;5054687;56;1142971;-67
2023/07/18 22:11:04;;;;;;;38.40;13.60;;;;;;;19.91;63.00;100618.71;5074597;56;1142922;-67
2023/07/18 22:16:09;;;;;;;42.80;16.67;;;;;;;19.85;63.29;100610.55;5053916;56;1142777;-68
2023/07/18 22:21:15;;;;;;;61.60;18.17;;;;;;;19.65;63.33;100605.61;5001758;57;1142881;-72
2023/07/18 22:26:20;;;;;;;77.58;22.52;;;;;;;19.58;63.61;100601.95;5044347;57;1143034;-70
2023/07/18 22:31:26;;;;;;;70.03;20.37;;;;;;;19.55;64.00;100594.27;5051160;56;1142704;-71
2023/07/18 22:36:32;;;;;;;90.47;26.55;;;;;;;19.53;64.29;100599.48;5010395;57;1143281;-70
2023/07/18 22:41:37;;;;;;;37.30;13.98;;;;;;;19.33;64.24;100600.36;5010893;57;1142906;-72
2023/07/18 22:46:43;;;;;;;27.00;12.10;;;;;;;19.15;64.80;100589.86;4993542;57;1142912;-70
2023/07/18 22:51:49;;;;;;;30.12;12.18;;;;;;;19.01;65.14;100589.73;5012753;57;1142939;-70
2023/07/18 22:56:54;;;;;;;38.23;13.78;;;;;;;18.98;65.96;100581.53;5041174;57;1143023;-72
2023/07/18 23:02:00;;;;;;;48.50;22.32;;;;;;;18.94;66.42;100574.86;5058852;56;1142968;-71
2023/07/18 23:07:06;;;;;;;49.42;20.25;;;;;;;18.82;66.72;100576.20;5041142;57;1143058;-70